Terminal Aerodrome Forecast
Issued by NWS Atlanta, GA

Home | Current Version | Previous Version | Text Only | Print | Product List | Glossary On
Versions: 1 2 3 4 5 6 7 8 9 10 11 12 13 14 15 16 17 18 19 20 21 22 23 24 25 26 27 28 29 30 31 32 33 34 35 36 37 38 39 40 41 42
000
FTUS42 KFFC 071335 AAA
TAFATL
TAF AMD
KATL 071335Z 0714/0818 31008KT P6SM FEW015
      TEMPO 0715/0717 SCT025
     FM071700 28006KT P6SM SCT035
     FM080800 31009KT P6SM SCT050 BKN100
     FM081500 34014G24KT P6SM FEW050 SCT120=

USA.gov is the U.S. government's official web portal to all federal, state and local government web resources and services.